SBOSBO XRY / LEJR
Speedbird OnlineSpeedbird Online XRY / LEJR

Jerez Airport
05:29 11.5°C

Location Jerez, Spain
Latitude: 36.744598388671875
Longitude: -6.060110092163086
Local Time 05:29 on 24 Apr 2024
UTC +2 hours (Europe/Madrid)
Currency £1 equals EUR 1.16
METAR LEJR 240300Z AUTO VRB01KT 9000 NSC 10/04 Q1016
TAF TAF LEJR 240200Z 2403/2503 VRB02KT CAVOK TX26/2415Z TN08/2406Z
Weather As Of 24 Apr 2024 05:29
Description Clear sky
Wind 6 km/h from North (0°)
Cloud Cover 0%
Precipitation Rain: none, Snow: none
Sunrise 07:38
Sunset 21:06
Web Airport Website | Wikipedia
Codes IATA: XRY
ICAO: LEJR
Altitude 28 Meter / 93 Feet
Distance 1,712 KM / 1,064 Miles
from London.
Runways
RunwayLength (m)Surface
022300Asphalt
202300Asphalt
Radio
TypeDescriptionFrequency
APPAPP128.5
GNDGND121.6
TWRTWR118.55
Live ATC



Support Speedbird Online

© 2017-2024 Speedbird Online